X  SluitMETAR luchtvaart weer gegevens      EHGG Eelde

Temperatuur

16°C Temperatuur

10°C Dauwpunt

68% Vochtigheid



Wind

29 KM/U

18 MPH

 8 M/S

16 KTS



290°
West Noord
West
Huidig weer

Wat bewolking Wat bewolking
Luchtdruk 1015.92 (hPa) - 30 (in)
Zicht 6.2 (mi) - 10 (km)
Vliegveld
Vliegveld code EHGG

Locatie Eelde 50 (km)

Metar:
EHGG 061555Z AUTO 29016G26KT 250V330 9999 FEW026 SCT031 16/10 Q1016 TEMPO 27015G25KT 6000 SHRA SCT020CB BKN025

Tijd: 06-07-2020 17:55